createdAt,value
2022-10-18T00:02:40.101Z,83.06
2022-10-18T00:07:38.918Z,83.07
2022-10-18T00:12:38.471Z,82.43
2022-10-18T00:17:38.738Z,82.65
2022-10-18T00:22:39.817Z,83.41
2022-10-18T00:27:38.531Z,83.34
2022-10-18T00:32:38.716Z,83.33
2022-10-18T00:37:37.476Z,83.34
2022-10-18T00:42:37.713Z,83.34
2022-10-18T00:47:36.820Z,83.71
2022-10-18T00:52:43.480Z,83.22
2022-10-18T00:57:43.992Z,83.29
2022-10-18T01:02:44.979Z,83.86
2022-10-18T01:07:55.428Z,83.54
2022-10-18T01:13:03.246Z,83.60
2022-10-18T01:18:26.165Z,83.66
2022-10-18T01:23:33.997Z,83.57
2022-10-18T01:28:39.306Z,83.95
2022-10-18T01:39:05.923Z,83.95
2022-10-18T01:44:09.563Z,83.87
2022-10-18T01:49:08.526Z,83.77
2022-10-18T01:54:08.914Z,84.43
2022-10-18T01:59:20.796Z,84.53
2022-10-18T02:04:46.890Z,84.31
2022-10-18T02:09:52.986Z,84.44
2022-10-18T02:14:53.225Z,84.48
2022-10-18T02:19:55.888Z,84.45
2022-10-18T02:24:58.946Z,84.15
2022-10-18T02:29:58.602Z,84.59
2022-10-18T02:35:25.912Z,84.47
2022-10-18T02:40:26.478Z,84.93
2022-10-18T02:45:26.511Z,84.60
2022-10-18T02:50:25.140Z,84.57
2022-10-18T02:55:23.849Z,84.56
2022-10-18T03:00:22.875Z,84.87
2022-10-18T03:05:21.493Z,84.70
2022-10-18T03:10:20.465Z,84.93
2022-10-18T03:15:19.183Z,84.99
2022-10-18T03:20:17.948Z,85.15
2022-10-18T03:25:16.667Z,85.19
2022-10-18T03:30:16.077Z,85.42
2022-10-18T03:35:14.794Z,84.98
2022-10-18T03:40:13.494Z,85.63
2022-10-18T03:45:12.105Z,85.66
2022-10-18T03:50:10.811Z,85.04
2022-10-18T03:55:09.554Z,85.18
2022-10-18T04:00:08.704Z,84.95
2022-10-18T04:05:16.397Z,85.00
2022-10-18T04:10:15.108Z,84.26
2022-10-18T04:15:13.911Z,83.92
2022-10-18T04:20:13.047Z,83.58
2022-10-18T04:25:11.874Z,83.63
2022-10-18T04:30:11.221Z,83.00
2022-10-18T04:35:10.226Z,83.38
2022-10-18T04:40:09.812Z,82.22
2022-10-18T04:45:09.414Z,87.82
2022-10-18T04:50:08.453Z,82.18
2022-10-18T04:55:07.411Z,80.45
2022-10-18T05:00:07.139Z,78.13
2022-10-18T05:05:09.125Z,78.88
2022-10-18T05:10:10.748Z,77.00
2022-10-18T05:15:10.164Z,77.68
2022-10-18T05:20:09.593Z,79.56
2022-10-18T05:25:09.223Z,80.10
2022-10-18T05:30:08.248Z,80.40
2022-10-18T05:35:07.402Z,81.02
2022-10-18T05:40:06.650Z,81.80
2022-10-18T05:45:05.749Z,81.30
2022-10-18T05:50:04.756Z,80.64
2022-10-18T05:55:03.713Z,81.10
2022-10-18T06:00:02.671Z,80.81
2022-10-18T06:05:10.560Z,80.98
2022-10-18T06:10:09.803Z,81.58
2022-10-18T06:15:08.751Z,81.99
2022-10-18T06:20:08.445Z,81.61
2022-10-18T06:25:07.398Z,80.91
2022-10-18T06:30:06.813Z,81.00
2022-10-18T06:35:05.954Z,80.73
2022-10-18T06:40:05.949Z,80.09
2022-10-18T06:45:05.059Z,80.01
2022-10-18T06:50:03.972Z,80.59
2022-10-18T06:55:06.046Z,80.13
2022-10-18T07:00:08.131Z,80.21
2022-10-18T07:05:11.156Z,79.95
2022-10-18T07:10:13.010Z,79.35
2022-10-18T07:15:12.067Z,79.35
2022-10-18T07:20:10.750Z,79.32
2022-10-18T07:25:09.800Z,79.38
2022-10-18T07:30:11.033Z,78.78
2022-10-18T07:40:09.200Z,79.20
2022-10-18T07:45:08.681Z,78.62
2022-10-18T07:50:07.806Z,78.40
2022-10-18T07:55:06.865Z,78.47
2022-10-18T08:00:06.433Z,77.76
2022-10-18T08:05:10.207Z,77.27
2022-10-18T08:10:09.360Z,77.79
2022-10-18T08:15:08.694Z,78.17
2022-10-18T08:20:12.707Z,78.26
2022-10-18T08:25:25.708Z,78.48
2022-10-18T08:30:24.546Z,77.46
2022-10-18T08:35:23.386Z,76.64
2022-10-18T08:40:22.275Z,76.30
2022-10-18T08:45:30.542Z,76.72
2022-10-18T08:50:41.235Z,77.02
2022-10-18T08:55:46.201Z,76.99
2022-10-18T09:01:06.103Z,76.93
2022-10-18T09:06:28.495Z,77.21
2022-10-18T09:11:33.502Z,77.43
2022-10-18T09:16:44.714Z,76.83
2022-10-18T09:21:55.078Z,77.15
2022-10-18T09:27:01.839Z,76.36
2022-10-18T09:32:06.478Z,75.72
2022-10-18T09:37:12.188Z,74.99
2022-10-18T09:42:26.936Z,74.55
2022-10-18T09:47:42.517Z,74.00
2022-10-18T09:52:51.870Z,74.67
2022-10-18T09:57:56.555Z,74.64
2022-10-18T10:02:55.792Z,74.86
2022-10-18T10:07:59.951Z,75.38
2022-10-18T10:13:04.160Z,75.37
2022-10-18T10:18:21.850Z,74.97
2022-10-18T10:23:25.163Z,74.36
2022-10-18T10:28:28.842Z,73.90
2022-10-18T10:33:37.114Z,74.20
2022-10-18T10:38:35.890Z,73.75
2022-10-18T10:43:39.174Z,73.08
2022-10-18T10:49:27.936Z,73.61
2022-10-18T10:54:23.412Z,74.59
2022-10-18T10:59:26.222Z,75.97
2022-10-18T11:04:28.415Z,79.12
2022-10-18T11:09:48.075Z,81.59
2022-10-18T11:14:52.828Z,82.64
2022-10-18T11:20:05.158Z,83.24
2022-10-18T11:25:05.804Z,83.14
2022-10-18T11:30:29.722Z,83.58
2022-10-18T11:35:40.917Z,83.96
2022-10-18T11:40:42.342Z,83.89
2022-10-18T11:45:52.676Z,83.87
2022-10-18T11:51:05.509Z,83.81
2022-10-18T11:56:22.929Z,83.76
2022-10-18T12:01:40.879Z,83.24
2022-10-18T12:06:43.127Z,84.35
2022-10-18T12:11:53.543Z,83.95
2022-10-18T12:17:27.846Z,83.79
2022-10-18T12:22:28.672Z,84.80
2022-10-18T12:27:53.632Z,84.57
2022-10-18T12:33:08.715Z,84.20
2022-10-18T12:38:23.867Z,85.31
2022-10-18T12:43:36.924Z,85.24
2022-10-18T12:48:48.859Z,86.26
2022-10-18T12:53:55.062Z,85.91
2022-10-18T12:59:15.809Z,84.62
2022-10-18T13:04:35.253Z,84.30
2022-10-18T13:10:12.889Z,84.98
2022-10-18T13:15:33.436Z,84.83
2022-10-18T13:20:50.826Z,85.14
2022-10-18T13:26:44.776Z,84.31
2022-10-18T13:32:02.716Z,84.76
2022-10-18T13:37:02.709Z,84.52
2022-10-18T13:42:01.466Z,84.95
2022-10-18T13:47:00.240Z,84.68
2022-10-18T13:52:20.766Z,84.78
2022-10-18T13:57:30.177Z,84.93
2022-10-18T14:02:51.554Z,84.75
2022-10-18T14:07:58.359Z,84.60
2022-10-18T14:13:02.591Z,85.53
2022-10-18T14:18:15.416Z,84.97
2022-10-18T14:23:21.335Z,84.15
2022-10-18T14:28:31.397Z,82.96
2022-10-18T14:33:33.028Z,83.97
2022-10-18T14:38:32.232Z,83.64
2022-10-18T14:43:30.937Z,83.10
2022-10-18T14:48:29.662Z,83.29
2022-10-18T14:53:37.428Z,84.76
2022-10-18T14:58:37.984Z,84.94
2022-10-18T15:03:36.957Z,84.99
2022-10-18T15:08:37.770Z,85.27
2022-10-18T15:13:51.982Z,84.46
2022-10-18T15:19:03.984Z,84.14
2022-10-18T15:24:20.609Z,84.91
2022-10-18T15:29:20.768Z,84.76
2022-10-18T15:34:27.744Z,85.02
2022-10-18T15:39:29.397Z,85.30
2022-10-18T15:44:32.420Z,85.49
2022-10-18T15:49:46.609Z,85.34
2022-10-18T15:54:45.397Z,85.98
2022-10-18T15:59:58.191Z,86.35
2022-10-18T16:04:59.505Z,85.46
2022-10-18T16:09:58.327Z,85.28
2022-10-18T16:14:57.011Z,85.03
2022-10-18T16:19:55.943Z,86.79
2022-10-18T16:24:54.563Z,86.53
2022-10-18T16:29:53.275Z,86.40
2022-10-18T16:34:52.014Z,87.44
2022-10-18T16:39:50.927Z,87.71
2022-10-18T16:44:49.818Z,87.02
2022-10-18T16:49:49.214Z,87.35
2022-10-18T16:54:47.982Z,88.05
2022-10-18T16:59:46.705Z,88.31
2022-10-18T17:04:45.364Z,88.78
2022-10-18T17:09:44.129Z,88.86
2022-10-18T17:14:42.849Z,88.99
2022-10-18T17:19:41.558Z,88.63
2022-10-18T17:24:40.242Z,88.73
2022-10-18T17:29:40.990Z,88.79
2022-10-18T17:39:38.436Z,88.42
2022-10-18T17:44:37.228Z,88.03
2022-10-18T17:49:36.335Z,88.25
2022-10-18T17:54:35.016Z,88.13
2022-10-18T17:59:33.672Z,88.27
2022-10-18T18:04:32.362Z,88.15
2022-10-18T18:09:31.519Z,88.51
2022-10-18T18:14:30.256Z,88.62
2022-10-18T18:19:29.117Z,87.90
2022-10-18T18:24:28.391Z,87.55
2022-10-18T18:29:27.958Z,88.85
2022-10-18T18:34:26.710Z,88.21
2022-10-18T18:39:29.646Z,87.36
2022-10-18T18:44:28.804Z,87.18
2022-10-18T18:49:27.990Z,88.12
2022-10-18T18:54:28.712Z,87.68
2022-10-18T18:59:27.527Z,88.05
2022-10-18T19:04:26.481Z,87.59
2022-10-18T19:09:27.448Z,88.51
2022-10-18T19:14:26.429Z,88.37
2022-10-18T19:19:27.113Z,88.71
2022-10-18T19:24:27.916Z,87.96
2022-10-18T19:29:30.607Z,88.15
2022-10-18T19:34:30.605Z,87.64
2022-10-18T19:39:31.446Z,87.89
2022-10-18T19:44:32.388Z,88.94
2022-10-18T19:49:31.355Z,88.03
2022-10-18T19:54:30.228Z,87.62
2022-10-18T19:59:29.286Z,87.76
2022-10-18T20:04:28.292Z,87.83
2022-10-18T20:09:27.166Z,88.63
2022-10-18T20:14:26.008Z,88.53
2022-10-18T20:19:24.702Z,88.83
2022-10-18T20:24:23.656Z,88.68
2022-10-18T20:29:25.221Z,88.61
2022-10-18T20:34:26.001Z,87.82
2022-10-18T20:39:24.890Z,87.94
2022-10-18T20:44:25.407Z,88.61
2022-10-18T20:49:24.169Z,89.13
2022-10-18T20:54:22.886Z,86.90
2022-10-18T20:59:21.602Z,87.91
2022-10-18T21:04:20.367Z,88.01
2022-10-18T21:09:20.050Z,87.97
2022-10-18T21:14:21.422Z,88.13
2022-10-18T21:19:25.437Z,87.35
2022-10-18T21:24:25.417Z,87.28
2022-10-18T21:29:27.394Z,87.20
2022-10-18T21:34:26.569Z,88.36
2022-10-18T21:39:25.529Z,88.78
2022-10-18T21:44:24.295Z,89.25
2022-10-18T21:49:25.103Z,89.42
2022-10-18T21:54:23.843Z,88.17
2022-10-18T21:59:22.631Z,87.34
2022-10-18T22:04:24.085Z,87.08
2022-10-18T22:09:23.092Z,87.14
2022-10-18T22:14:22.468Z,87.67
2022-10-18T22:19:21.349Z,88.58
2022-10-18T22:24:20.268Z,87.86
2022-10-18T22:29:21.237Z,87.97
2022-10-18T22:34:28.896Z,87.21
2022-10-18T22:39:27.712Z,88.09
2022-10-18T22:44:26.641Z,87.63
2022-10-18T22:49:25.369Z,87.62
2022-10-18T22:54:24.015Z,88.76
2022-10-18T22:59:23.139Z,88.25
2022-10-18T23:04:21.976Z,87.88
2022-10-18T23:09:20.715Z,87.87
2022-10-18T23:14:19.479Z,87.66
2022-10-18T23:19:18.234Z,88.12
2022-10-18T23:24:16.930Z,87.73
2022-10-18T23:29:15.949Z,87.91
2022-10-18T23:34:15.265Z,88.48
2022-10-18T23:39:13.958Z,88.49
2022-10-18T23:44:12.654Z,88.17
2022-10-18T23:49:11.332Z,88.63
2022-10-18T23:54:10.077Z,87.86
2022-10-18T23:59:08.733Z,86.22
